sensor_id;sensor_type;location;lat;lon;timestamp;P1;durP1;ratioP1;P2;durP2;ratioP2
26407;SDS011;14583;43.604;1.364;2023-02-11T00:01:15;106.15;;;57.55;;
26407;SDS011;14583;43.604;1.364;2023-02-11T00:03:54;102.25;;;57.35;;
26407;SDS011;14583;43.604;1.364;2023-02-11T00:06:20;94.38;;;55.40;;
26407;SDS011;14583;43.604;1.364;2023-02-11T00:08:46;98.78;;;55.60;;
26407;SDS011;14583;43.604;1.364;2023-02-11T00:11:13;100.05;;;55.72;;
26407;SDS011;14583;43.604;1.364;2023-02-11T00:13:40;89.88;;;54.20;;
26407;SDS011;14583;43.604;1.364;2023-02-11T00:16:08;88.85;;;52.22;;
26407;SDS011;14583;43.604;1.364;2023-02-11T00:18:35;91.75;;;51.53;;
26407;SDS011;14583;43.604;1.364;2023-02-11T00:21:11;98.15;;;54.42;;
26407;SDS011;14583;43.604;1.364;2023-02-11T00:23:39;96.03;;;53.83;;
26407;SDS011;14583;43.604;1.364;2023-02-11T00:26:18;94.43;;;53.72;;
26407;SDS011;14583;43.604;1.364;2023-02-11T00:28:46;100.13;;;54.83;;
26407;SDS011;14583;43.604;1.364;2023-02-11T00:31:13;93.68;;;52.78;;
26407;SDS011;14583;43.604;1.364;2023-02-11T00:33:40;90.88;;;52.15;;
26407;SDS011;14583;43.604;1.364;2023-02-11T00:36:14;89.25;;;50.22;;
26407;SDS011;14583;43.604;1.364;2023-02-11T00:38:43;84.43;;;48.25;;
26407;SDS011;14583;43.604;1.364;2023-02-11T00:41:10;84.78;;;49.10;;
26407;SDS011;14583;43.604;1.364;2023-02-11T00:43:37;87.00;;;47.95;;
26407;SDS011;14583;43.604;1.364;2023-02-11T00:46:03;92.03;;;48.42;;
26407;SDS011;14583;43.604;1.364;2023-02-11T00:48:30;85.32;;;45.67;;
26407;SDS011;14583;43.604;1.364;2023-02-11T00:50:55;90.53;;;48.05;;
26407;SDS011;14583;43.604;1.364;2023-02-11T00:53:21;85.35;;;48.20;;
26407;SDS011;14583;43.604;1.364;2023-02-11T00:55:49;77.15;;;42.47;;
26407;SDS011;14583;43.604;1.364;2023-02-11T00:58:15;71.35;;;38.50;;
26407;SDS011;14583;43.604;1.364;2023-02-11T01:00:41;62.35;;;35.78;;
26407;SDS011;14583;43.604;1.364;2023-02-11T01:03:07;72.38;;;33.80;;
26407;SDS011;14583;43.604;1.364;2023-02-11T01:05:33;64.55;;;34.90;;
26407;SDS011;14583;43.604;1.364;2023-02-11T01:07:59;63.70;;;33.67;;
26407;SDS011;14583;43.604;1.364;2023-02-11T01:10:25;55.30;;;32.47;;
26407;SDS011;14583;43.604;1.364;2023-02-11T01:12:51;55.30;;;31.15;;
26407;SDS011;14583;43.604;1.364;2023-02-11T01:15:17;53.78;;;30.55;;
26407;SDS011;14583;43.604;1.364;2023-02-11T01:17:47;60.25;;;31.60;;
26407;SDS011;14583;43.604;1.364;2023-02-11T01:20:14;60.05;;;33.10;;
26407;SDS011;14583;43.604;1.364;2023-02-11T01:22:43;57.83;;;34.03;;
26407;SDS011;14583;43.604;1.364;2023-02-11T01:25:09;57.20;;;32.38;;
26407;SDS011;14583;43.604;1.364;2023-02-11T01:27:35;56.08;;;32.20;;
26407;SDS011;14583;43.604;1.364;2023-02-11T01:30:01;58.83;;;31.83;;
26407;SDS011;14583;43.604;1.364;2023-02-11T01:32:29;56.38;;;30.88;;
26407;SDS011;14583;43.604;1.364;2023-02-11T01:34:54;56.83;;;30.88;;
26407;SDS011;14583;43.604;1.364;2023-02-11T01:37:20;47.45;;;29.67;;
26407;SDS011;14583;43.604;1.364;2023-02-11T01:39:46;47.15;;;28.15;;
26407;SDS011;14583;43.604;1.364;2023-02-11T01:42:15;48.30;;;27.30;;
26407;SDS011;14583;43.604;1.364;2023-02-11T01:44:42;45.13;;;26.10;;
26407;SDS011;14583;43.604;1.364;2023-02-11T01:47:09;50.08;;;27.30;;
26407;SDS011;14583;43.604;1.364;2023-02-11T01:49:36;48.15;;;26.73;;
26407;SDS011;14583;43.604;1.364;2023-02-11T01:52:11;42.83;;;24.52;;
26407;SDS011;14583;43.604;1.364;2023-02-11T01:54:53;45.85;;;26.15;;
26407;SDS011;14583;43.604;1.364;2023-02-11T01:57:44;43.13;;;25.85;;
26407;SDS011;14583;43.604;1.364;2023-02-11T02:02:59;43.13;;;25.27;;
26407;SDS011;14583;43.604;1.364;2023-02-11T02:08:38;44.47;;;24.52;;
26407;SDS011;14583;43.604;1.364;2023-02-11T02:11:08;42.40;;;24.60;;
26407;SDS011;14583;43.604;1.364;2023-02-11T02:13:34;47.08;;;26.88;;
26407;SDS011;14583;43.604;1.364;2023-02-11T02:16:01;46.33;;;25.67;;
26407;SDS011;14583;43.604;1.364;2023-02-11T02:41:28;40.95;;;24.10;;
26407;SDS011;14583;43.604;1.364;2023-02-11T02:43:56;39.15;;;22.55;;
26407;SDS011;14583;43.604;1.364;2023-02-11T02:48:50;36.97;;;21.45;;
26407;SDS011;14583;43.604;1.364;2023-02-11T03:02:32;44.33;;;23.60;;
26407;SDS011;14583;43.604;1.364;2023-02-11T03:08:15;41.33;;;23.42;;
26407;SDS011;14583;43.604;1.364;2023-02-11T03:10:49;41.65;;;24.02;;
26407;SDS011;14583;43.604;1.364;2023-02-11T03:13:17;37.97;;;23.48;;
26407;SDS011;14583;43.604;1.364;2023-02-11T03:15:47;38.33;;;22.73;;
26407;SDS011;14583;43.604;1.364;2023-02-11T03:18:16;40.28;;;23.45;;
26407;SDS011;14583;43.604;1.364;2023-02-11T03:20:47;44.63;;;22.67;;
26407;SDS011;14583;43.604;1.364;2023-02-11T03:23:29;35.60;;;21.00;;
26407;SDS011;14583;43.604;1.364;2023-02-11T03:26:02;36.20;;;22.05;;
26407;SDS011;14583;43.604;1.364;2023-02-11T03:28:34;39.03;;;21.85;;
26407;SDS011;14583;43.604;1.364;2023-02-11T03:31:14;38.53;;;22.75;;
26407;SDS011;14583;43.604;1.364;2023-02-11T03:39:12;39.30;;;20.98;;
26407;SDS011;14583;43.604;1.364;2023-02-11T03:41:42;42.00;;;22.02;;
26407;SDS011;14583;43.604;1.364;2023-02-11T03:44:09;35.60;;;21.83;;
26407;SDS011;14583;43.604;1.364;2023-02-11T03:46:38;42.30;;;22.27;;
26407;SDS011;14583;43.604;1.364;2023-02-11T03:49:08;32.13;;;22.10;;
26407;SDS011;14583;43.604;1.364;2023-02-11T03:51:37;38.90;;;21.88;;
26407;SDS011;14583;43.604;1.364;2023-02-11T03:54:05;40.25;;;22.42;;
26407;SDS011;14583;43.604;1.364;2023-02-11T03:56:39;39.03;;;23.75;;
26407;SDS011;14583;43.604;1.364;2023-02-11T03:59:11;42.25;;;23.70;;
26407;SDS011;14583;43.604;1.364;2023-02-11T04:01:36;36.95;;;22.20;;
26407;SDS011;14583;43.604;1.364;2023-02-11T04:04:02;38.50;;;22.08;;
26407;SDS011;14583;43.604;1.364;2023-02-11T04:06:28;42.88;;;21.90;;
26407;SDS011;14583;43.604;1.364;2023-02-11T04:08:54;36.70;;;21.50;;
26407;SDS011;14583;43.604;1.364;2023-02-11T04:11:20;40.97;;;22.92;;
26407;SDS011;14583;43.604;1.364;2023-02-11T04:13:45;37.00;;;22.65;;
26407;SDS011;14583;43.604;1.364;2023-02-11T04:16:11;37.20;;;21.85;;
26407;SDS011;14583;43.604;1.364;2023-02-11T04:18:37;42.42;;;21.15;;
26407;SDS011;14583;43.604;1.364;2023-02-11T04:21:02;38.38;;;20.80;;
26407;SDS011;14583;43.604;1.364;2023-02-11T04:23:28;42.47;;;20.02;;
26407;SDS011;14583;43.604;1.364;2023-02-11T04:25:54;33.90;;;20.52;;
26407;SDS011;14583;43.604;1.364;2023-02-11T04:28:19;35.22;;;20.55;;
26407;SDS011;14583;43.604;1.364;2023-02-11T04:30:45;36.75;;;19.48;;
26407;SDS011;14583;43.604;1.364;2023-02-11T04:33:14;36.33;;;20.92;;
26407;SDS011;14583;43.604;1.364;2023-02-11T04:35:40;35.03;;;20.10;;
26407;SDS011;14583;43.604;1.364;2023-02-11T04:38:06;36.80;;;21.83;;
26407;SDS011;14583;43.604;1.364;2023-02-11T04:40:31;37.15;;;21.45;;
26407;SDS011;14583;43.604;1.364;2023-02-11T04:42:57;35.45;;;21.40;;
26407;SDS011;14583;43.604;1.364;2023-02-11T04:45:23;35.75;;;20.33;;
26407;SDS011;14583;43.604;1.364;2023-02-11T04:47:48;33.47;;;20.13;;
26407;SDS011;14583;43.604;1.364;2023-02-11T04:50:14;34.92;;;20.23;;
26407;SDS011;14583;43.604;1.364;2023-02-11T04:52:40;31.35;;;19.15;;
26407;SDS011;14583;43.604;1.364;2023-02-11T04:55:06;39.10;;;18.98;;
26407;SDS011;14583;43.604;1.364;2023-02-11T04:57:32;32.05;;;18.50;;
26407;SDS011;14583;43.604;1.364;2023-02-11T04:59:58;32.55;;;19.00;;
26407;SDS011;14583;43.604;1.364;2023-02-11T05:02:23;29.90;;;17.98;;
26407;SDS011;14583;43.604;1.364;2023-02-11T05:04:49;34.45;;;18.85;;
26407;SDS011;14583;43.604;1.364;2023-02-11T05:07:15;30.38;;;17.40;;
26407;SDS011;14583;43.604;1.364;2023-02-11T05:09:40;35.58;;;17.92;;
26407;SDS011;14583;43.604;1.364;2023-02-11T05:12:06;31.90;;;17.85;;
26407;SDS011;14583;43.604;1.364;2023-02-11T05:14:32;35.20;;;19.13;;
26407;SDS011;14583;43.604;1.364;2023-02-11T05:16:58;34.55;;;18.67;;
26407;SDS011;14583;43.604;1.364;2023-02-11T05:19:23;30.88;;;17.88;;
26407;SDS011;14583;43.604;1.364;2023-02-11T05:21:49;28.90;;;17.63;;
26407;SDS011;14583;43.604;1.364;2023-02-11T05:24:15;28.27;;;16.50;;
26407;SDS011;14583;43.604;1.364;2023-02-11T05:26:41;30.92;;;17.70;;
26407;SDS011;14583;43.604;1.364;2023-02-11T05:29:06;32.60;;;17.98;;
26407;SDS011;14583;43.604;1.364;2023-02-11T05:31:32;33.63;;;18.13;;
26407;SDS011;14583;43.604;1.364;2023-02-11T05:33:58;26.95;;;18.13;;
26407;SDS011;14583;43.604;1.364;2023-02-11T05:36:24;28.80;;;16.90;;
26407;SDS011;14583;43.604;1.364;2023-02-11T05:38:49;32.97;;;18.50;;
26407;SDS011;14583;43.604;1.364;2023-02-11T05:41:15;32.97;;;18.38;;
26407;SDS011;14583;43.604;1.364;2023-02-11T05:43:41;34.38;;;17.85;;
26407;SDS011;14583;43.604;1.364;2023-02-11T05:46:07;40.13;;;18.35;;
26407;SDS011;14583;43.604;1.364;2023-02-11T05:48:33;30.27;;;18.73;;
26407;SDS011;14583;43.604;1.364;2023-02-11T05:50:59;28.98;;;17.17;;
26407;SDS011;14583;43.604;1.364;2023-02-11T05:53:24;34.92;;;18.27;;
26407;SDS011;14583;43.604;1.364;2023-02-11T05:55:50;31.67;;;18.20;;
26407;SDS011;14583;43.604;1.364;2023-02-11T05:58:16;31.48;;;17.75;;
26407;SDS011;14583;43.604;1.364;2023-02-11T06:00:42;31.30;;;17.92;;
26407;SDS011;14583;43.604;1.364;2023-02-11T06:03:08;28.58;;;17.48;;
26407;SDS011;14583;43.604;1.364;2023-02-11T06:05:33;35.80;;;18.38;;
26407;SDS011;14583;43.604;1.364;2023-02-11T06:08:02;31.52;;;17.95;;
26407;SDS011;14583;43.604;1.364;2023-02-11T06:10:31;31.42;;;18.33;;
26407;SDS011;14583;43.604;1.364;2023-02-11T06:12:57;29.40;;;18.70;;
26407;SDS011;14583;43.604;1.364;2023-02-11T06:15:23;28.48;;;18.63;;
26407;SDS011;14583;43.604;1.364;2023-02-11T06:17:49;29.60;;;18.58;;
26407;SDS011;14583;43.604;1.364;2023-02-11T06:20:14;35.55;;;18.48;;
26407;SDS011;14583;43.604;1.364;2023-02-11T06:22:40;30.92;;;18.83;;
26407;SDS011;14583;43.604;1.364;2023-02-11T06:25:06;34.97;;;18.75;;
26407;SDS011;14583;43.604;1.364;2023-02-11T06:27:35;31.70;;;18.88;;
26407;SDS011;14583;43.604;1.364;2023-02-11T06:30:00;33.45;;;18.95;;
26407;SDS011;14583;43.604;1.364;2023-02-11T06:32:26;32.83;;;19.23;;
26407;SDS011;14583;43.604;1.364;2023-02-11T06:34:53;32.35;;;20.38;;
26407;SDS011;14583;43.604;1.364;2023-02-11T06:37:18;36.05;;;20.88;;
26407;SDS011;14583;43.604;1.364;2023-02-11T06:39:44;34.08;;;20.83;;
26407;SDS011;14583;43.604;1.364;2023-02-11T06:42:10;37.40;;;20.85;;
26407;SDS011;14583;43.604;1.364;2023-02-11T06:44:36;37.15;;;23.08;;
26407;SDS011;14583;43.604;1.364;2023-02-11T06:47:01;36.15;;;21.40;;
26407;SDS011;14583;43.604;1.364;2023-02-11T06:49:27;34.00;;;20.40;;
26407;SDS011;14583;43.604;1.364;2023-02-11T06:51:53;36.30;;;23.35;;
26407;SDS011;14583;43.604;1.364;2023-02-11T06:54:18;39.28;;;22.40;;
26407;SDS011;14583;43.604;1.364;2023-02-11T06:56:44;40.75;;;24.98;;
26407;SDS011;14583;43.604;1.364;2023-02-11T06:59:19;43.75;;;26.20;;
26407;SDS011;14583;43.604;1.364;2023-02-11T07:01:45;36.35;;;23.50;;
26407;SDS011;14583;43.604;1.364;2023-02-11T07:04:12;41.67;;;24.15;;
26407;SDS011;14583;43.604;1.364;2023-02-11T07:06:38;43.22;;;24.30;;
26407;SDS011;14583;43.604;1.364;2023-02-11T07:09:05;42.80;;;24.63;;
26407;SDS011;14583;43.604;1.364;2023-02-11T07:11:32;56.80;;;26.85;;
26407;SDS011;14583;43.604;1.364;2023-02-11T07:14:05;52.20;;;27.27;;
26407;SDS011;14583;43.604;1.364;2023-02-11T07:16:35;45.92;;;26.38;;
26407;SDS011;14583;43.604;1.364;2023-02-11T07:19:10;49.80;;;29.40;;
26407;SDS011;14583;43.604;1.364;2023-02-11T07:21:36;51.22;;;29.13;;
26407;SDS011;14583;43.604;1.364;2023-02-11T07:24:04;49.50;;;27.08;;
26407;SDS011;14583;43.604;1.364;2023-02-11T07:26:34;49.33;;;27.67;;
26407;SDS011;14583;43.604;1.364;2023-02-11T07:29:00;50.25;;;26.88;;
26407;SDS011;14583;43.604;1.364;2023-02-11T07:31:26;47.75;;;26.65;;
26407;SDS011;14583;43.604;1.364;2023-02-11T07:33:54;48.83;;;26.38;;
26407;SDS011;14583;43.604;1.364;2023-02-11T07:36:22;44.50;;;25.92;;
26407;SDS011;14583;43.604;1.364;2023-02-11T07:38:48;43.88;;;26.88;;
26407;SDS011;14583;43.604;1.364;2023-02-11T07:41:18;52.97;;;27.13;;
26407;SDS011;14583;43.604;1.364;2023-02-11T07:43:46;44.00;;;24.35;;
26407;SDS011;14583;43.604;1.364;2023-02-11T07:46:33;41.85;;;22.65;;
26407;SDS011;14583;43.604;1.364;2023-02-11T07:48:59;33.70;;;21.40;;
26407;SDS011;14583;43.604;1.364;2023-02-11T07:51:26;36.83;;;20.55;;
26407;SDS011;14583;43.604;1.364;2023-02-11T07:53:54;37.63;;;20.85;;
26407;SDS011;14583;43.604;1.364;2023-02-11T07:56:21;45.42;;;21.60;;
26407;SDS011;14583;43.604;1.364;2023-02-11T07:58:48;36.10;;;20.27;;
26407;SDS011;14583;43.604;1.364;2023-02-11T08:01:18;34.97;;;21.13;;
26407;SDS011;14583;43.604;1.364;2023-02-11T08:03:53;34.67;;;20.40;;
26407;SDS011;14583;43.604;1.364;2023-02-11T08:06:24;39.08;;;20.15;;
26407;SDS011;14583;43.604;1.364;2023-02-11T08:08:51;35.58;;;20.10;;
26407;SDS011;14583;43.604;1.364;2023-02-11T08:11:24;28.88;;;18.02;;
26407;SDS011;14583;43.604;1.364;2023-02-11T08:13:52;28.65;;;17.98;;
26407;SDS011;14583;43.604;1.364;2023-02-11T08:16:26;31.48;;;19.30;;
26407;SDS011;14583;43.604;1.364;2023-02-11T08:18:55;34.00;;;19.73;;
26407;SDS011;14583;43.604;1.364;2023-02-11T08:21:22;37.15;;;18.83;;
26407;SDS011;14583;43.604;1.364;2023-02-11T08:23:48;36.38;;;20.10;;
26407;SDS011;14583;43.604;1.364;2023-02-11T08:26:16;33.03;;;18.85;;
26407;SDS011;14583;43.604;1.364;2023-02-11T08:28:44;31.40;;;18.30;;
26407;SDS011;14583;43.604;1.364;2023-02-11T08:31:12;27.65;;;18.10;;
26407;SDS011;14583;43.604;1.364;2023-02-11T08:33:43;26.13;;;17.30;;
26407;SDS011;14583;43.604;1.364;2023-02-11T08:38:38;33.08;;;19.20;;
26407;SDS011;14583;43.604;1.364;2023-02-11T08:41:04;33.03;;;18.92;;
26407;SDS011;14583;43.604;1.364;2023-02-11T08:43:31;35.05;;;18.90;;
26407;SDS011;14583;43.604;1.364;2023-02-11T08:45:57;29.08;;;16.95;;
26407;SDS011;14583;43.604;1.364;2023-02-11T08:48:23;26.65;;;15.38;;
26407;SDS011;14583;43.604;1.364;2023-02-11T08:50:48;28.98;;;16.10;;
26407;SDS011;14583;43.604;1.364;2023-02-11T08:53:14;26.80;;;16.48;;
26407;SDS011;14583;43.604;1.364;2023-02-11T08:55:46;30.83;;;18.13;;
26407;SDS011;14583;43.604;1.364;2023-02-11T08:58:13;31.27;;;18.35;;
26407;SDS011;14583;43.604;1.364;2023-02-11T09:00:38;35.63;;;18.90;;
26407;SDS011;14583;43.604;1.364;2023-02-11T09:03:04;30.08;;;17.92;;
26407;SDS011;14583;43.604;1.364;2023-02-11T09:05:30;33.55;;;18.50;;
26407;SDS011;14583;43.604;1.364;2023-02-11T09:07:56;36.28;;;17.50;;
26407;SDS011;14583;43.604;1.364;2023-02-11T09:10:21;29.52;;;17.00;;
26407;SDS011;14583;43.604;1.364;2023-02-11T09:12:47;25.23;;;16.60;;
26407;SDS011;14583;43.604;1.364;2023-02-11T09:15:12;30.08;;;17.23;;
26407;SDS011;14583;43.604;1.364;2023-02-11T09:17:39;35.60;;;17.70;;
26407;SDS011;14583;43.604;1.364;2023-02-11T09:20:04;27.85;;;16.98;;
26407;SDS011;14583;43.604;1.364;2023-02-11T09:22:31;29.40;;;16.88;;
26407;SDS011;14583;43.604;1.364;2023-02-11T09:24:56;26.20;;;16.17;;
26407;SDS011;14583;43.604;1.364;2023-02-11T09:27:22;35.05;;;17.95;;
26407;SDS011;14583;43.604;1.364;2023-02-11T09:29:48;30.02;;;17.42;;
26407;SDS011;14583;43.604;1.364;2023-02-11T09:32:13;37.97;;;18.35;;
26407;SDS011;14583;43.604;1.364;2023-02-11T09:34:39;28.35;;;16.65;;
26407;SDS011;14583;43.604;1.364;2023-02-11T09:37:05;31.27;;;16.80;;
26407;SDS011;14583;43.604;1.364;2023-02-11T09:39:31;33.75;;;18.50;;
26407;SDS011;14583;43.604;1.364;2023-02-11T09:44:46;33.67;;;17.45;;
26407;SDS011;14583;43.604;1.364;2023-02-11T09:47:31;35.22;;;16.65;;
26407;SDS011;14583;43.604;1.364;2023-02-11T09:50:01;28.95;;;17.00;;
26407;SDS011;14583;43.604;1.364;2023-02-11T09:55:04;29.05;;;15.65;;
26407;SDS011;14583;43.604;1.364;2023-02-11T09:57:42;22.80;;;14.32;;
26407;SDS011;14583;43.604;1.364;2023-02-11T10:00:27;26.33;;;16.38;;
26407;SDS011;14583;43.604;1.364;2023-02-11T10:18:52;27.20;;;15.90;;
26407;SDS011;14583;43.604;1.364;2023-02-11T10:23:58;31.77;;;17.42;;
26407;SDS011;14583;43.604;1.364;2023-02-11T10:26:26;28.92;;;16.90;;
26407;SDS011;14583;43.604;1.364;2023-02-11T10:28:55;29.15;;;16.10;;
26407;SDS011;14583;43.604;1.364;2023-02-11T10:31:26;23.48;;;14.55;;
26407;SDS011;14583;43.604;1.364;2023-02-11T10:34:06;27.40;;;14.95;;
26407;SDS011;14583;43.604;1.364;2023-02-11T10:36:37;26.20;;;15.35;;
26407;SDS011;14583;43.604;1.364;2023-02-11T10:39:18;26.20;;;15.07;;
26407;SDS011;14583;43.604;1.364;2023-02-11T10:41:48;30.85;;;15.60;;
26407;SDS011;14583;43.604;1.364;2023-02-11T10:44:28;21.15;;;13.98;;
26407;SDS011;14583;43.604;1.364;2023-02-11T10:46:58;24.75;;;14.48;;
26407;SDS011;14583;43.604;1.364;2023-02-11T10:49:47;25.98;;;15.32;;
26407;SDS011;14583;43.604;1.364;2023-02-11T10:57:34;22.55;;;14.60;;
26407;SDS011;14583;43.604;1.364;2023-02-11T11:00:21;25.15;;;14.77;;
26407;SDS011;14583;43.604;1.364;2023-02-11T11:02:56;26.45;;;14.68;;
26407;SDS011;14583;43.604;1.364;2023-02-11T11:05:36;25.30;;;14.75;;
26407;SDS011;14583;43.604;1.364;2023-02-11T11:08:16;30.33;;;15.37;;
26407;SDS011;14583;43.604;1.364;2023-02-11T11:10:43;25.95;;;15.23;;
26407;SDS011;14583;43.604;1.364;2023-02-11T11:13:28;27.05;;;15.70;;
26407;SDS011;14583;43.604;1.364;2023-02-11T11:18:37;24.40;;;15.35;;
26407;SDS011;14583;43.604;1.364;2023-02-11T11:21:04;30.63;;;16.33;;
26407;SDS011;14583;43.604;1.364;2023-02-11T11:23:36;31.80;;;15.87;;
26407;SDS011;14583;43.604;1.364;2023-02-11T11:26:06;27.17;;;16.10;;
26407;SDS011;14583;43.604;1.364;2023-02-11T11:31:33;26.98;;;17.48;;
26407;SDS011;14583;43.604;1.364;2023-02-11T11:36:50;28.27;;;17.23;;
26407;SDS011;14583;43.604;1.364;2023-02-11T11:39:21;24.83;;;16.40;;
26407;SDS011;14583;43.604;1.364;2023-02-11T11:42:00;28.67;;;17.48;;
26407;SDS011;14583;43.604;1.364;2023-02-11T11:54:44;29.58;;;16.27;;
26407;SDS011;14583;43.604;1.364;2023-02-11T11:57:17;33.20;;;18.70;;
26407;SDS011;14583;43.604;1.364;2023-02-11T11:59:48;29.08;;;16.42;;
26407;SDS011;14583;43.604;1.364;2023-02-11T12:10:36;25.92;;;16.17;;
26407;SDS011;14583;43.604;1.364;2023-02-11T12:16:04;33.53;;;17.65;;
26407;SDS011;14583;43.604;1.364;2023-02-11T12:24:26;24.98;;;16.95;;
26407;SDS011;14583;43.604;1.364;2023-02-11T12:55:59;21.80;;;14.25;;
26407;SDS011;14583;43.604;1.364;2023-02-11T12:58:36;26.85;;;13.23;;
26407;SDS011;14583;43.604;1.364;2023-02-11T13:01:07;16.95;;;11.48;;
26407;SDS011;14583;43.604;1.364;2023-02-11T13:03:40;19.02;;;11.23;;
26407;SDS011;14583;43.604;1.364;2023-02-11T13:06:14;21.40;;;11.00;;
26407;SDS011;14583;43.604;1.364;2023-02-11T13:11:36;21.88;;;11.45;;
26407;SDS011;14583;43.604;1.364;2023-02-11T13:14:05;16.83;;;10.32;;
26407;SDS011;14583;43.604;1.364;2023-02-11T13:16:40;16.27;;;9.95;;
26407;SDS011;14583;43.604;1.364;2023-02-11T13:24:49;15.25;;;10.25;;
26407;SDS011;14583;43.604;1.364;2023-02-11T13:27:56;18.20;;;9.88;;
26407;SDS011;14583;43.604;1.364;2023-02-11T13:30:43;24.08;;;12.55;;
26407;SDS011;14583;43.604;1.364;2023-02-11T13:33:16;18.15;;;11.25;;
26407;SDS011;14583;43.604;1.364;2023-02-11T13:36:09;22.35;;;11.27;;
26407;SDS011;14583;43.604;1.364;2023-02-11T13:38:34;18.70;;;12.05;;
26407;SDS011;14583;43.604;1.364;2023-02-11T13:46:23;20.20;;;12.00;;
26407;SDS011;14583;43.604;1.364;2023-02-11T13:48:51;18.02;;;12.60;;
26407;SDS011;14583;43.604;1.364;2023-02-11T13:51:36;18.77;;;12.48;;
26407;SDS011;14583;43.604;1.364;2023-02-11T13:54:03;23.35;;;12.55;;
26407;SDS011;14583;43.604;1.364;2023-02-11T13:56:34;20.15;;;12.35;;
26407;SDS011;14583;43.604;1.364;2023-02-11T13:59:08;17.52;;;12.00;;
26407;SDS011;14583;43.604;1.364;2023-02-11T14:10:55;21.05;;;12.30;;
26407;SDS011;14583;43.604;1.364;2023-02-11T14:21:13;17.63;;;11.30;;
26407;SDS011;14583;43.604;1.364;2023-02-11T14:23:46;22.45;;;12.23;;
26407;SDS011;14583;43.604;1.364;2023-02-11T14:29:08;20.05;;;11.93;;
26407;SDS011;14583;43.604;1.364;2023-02-11T14:32:08;17.25;;;11.75;;
26407;SDS011;14583;43.604;1.364;2023-02-11T14:40:21;18.15;;;11.40;;
26407;SDS011;14583;43.604;1.364;2023-02-11T14:42:49;21.90;;;12.15;;
26407;SDS011;14583;43.604;1.364;2023-02-11T14:45:19;17.98;;;12.18;;
26407;SDS011;14583;43.604;1.364;2023-02-11T14:48:02;17.45;;;11.65;;
26407;SDS011;14583;43.604;1.364;2023-02-11T14:53:01;19.63;;;11.70;;
26407;SDS011;14583;43.604;1.364;2023-02-11T14:55:32;17.65;;;12.45;;
26407;SDS011;14583;43.604;1.364;2023-02-11T14:58:34;19.80;;;11.48;;
26407;SDS011;14583;43.604;1.364;2023-02-11T15:00:58;17.13;;;11.00;;
26407;SDS011;14583;43.604;1.364;2023-02-11T15:06:17;16.73;;;10.85;;
26407;SDS011;14583;43.604;1.364;2023-02-11T15:08:55;15.77;;;10.90;;
26407;SDS011;14583;43.604;1.364;2023-02-11T15:11:26;17.08;;;10.85;;
26407;SDS011;14583;43.604;1.364;2023-02-11T15:13:56;17.02;;;12.15;;
26407;SDS011;14583;43.604;1.364;2023-02-11T15:16:26;21.92;;;11.35;;
26407;SDS011;14583;43.604;1.364;2023-02-11T15:18:53;15.18;;;10.35;;
26407;SDS011;14583;43.604;1.364;2023-02-11T15:21:23;16.52;;;10.52;;
26407;SDS011;14583;43.604;1.364;2023-02-11T15:23:56;15.38;;;9.82;;
26407;SDS011;14583;43.604;1.364;2023-02-11T15:26:27;15.95;;;9.55;;
26407;SDS011;14583;43.604;1.364;2023-02-11T15:28:54;13.05;;;8.70;;
26407;SDS011;14583;43.604;1.364;2023-02-11T15:31:23;13.98;;;8.73;;
26407;SDS011;14583;43.604;1.364;2023-02-11T15:33:50;13.65;;;9.02;;
26407;SDS011;14583;43.604;1.364;2023-02-11T15:36:18;14.02;;;9.13;;
26407;SDS011;14583;43.604;1.364;2023-02-11T15:39:52;12.75;;;8.90;;
26407;SDS011;14583;43.604;1.364;2023-02-11T15:47:40;9.95;;;7.80;;
26407;SDS011;14583;43.604;1.364;2023-02-11T15:52:45;11.65;;;7.72;;
26407;SDS011;14583;43.604;1.364;2023-02-11T15:55:12;11.30;;;7.88;;
26407;SDS011;14583;43.604;1.364;2023-02-11T15:57:41;8.90;;;6.45;;
26407;SDS011;14583;43.604;1.364;2023-02-11T16:00:14;11.60;;;7.70;;
26407;SDS011;14583;43.604;1.364;2023-02-11T16:02:44;11.23;;;8.02;;
26407;SDS011;14583;43.604;1.364;2023-02-11T16:05:35;9.50;;;7.72;;
26407;SDS011;14583;43.604;1.364;2023-02-11T16:08:21;11.52;;;8.10;;
26407;SDS011;14583;43.604;1.364;2023-02-11T16:10:54;10.85;;;7.95;;
26407;SDS011;14583;43.604;1.364;2023-02-11T16:13:23;12.50;;;8.70;;
26407;SDS011;14583;43.604;1.364;2023-02-11T16:15:53;12.43;;;8.13;;
26407;SDS011;14583;43.604;1.364;2023-02-11T16:18:35;13.73;;;8.60;;
26407;SDS011;14583;43.604;1.364;2023-02-11T16:21:13;12.65;;;8.57;;
26407;SDS011;14583;43.604;1.364;2023-02-11T16:23:41;11.57;;;8.52;;
26407;SDS011;14583;43.604;1.364;2023-02-11T16:26:33;12.63;;;8.52;;
26407;SDS011;14583;43.604;1.364;2023-02-11T16:29:04;13.90;;;8.25;;
26407;SDS011;14583;43.604;1.364;2023-02-11T16:31:35;14.35;;;8.43;;
26407;SDS011;14583;43.604;1.364;2023-02-11T16:34:06;11.77;;;8.55;;
26407;SDS011;14583;43.604;1.364;2023-02-11T16:36:38;12.02;;;9.50;;
26407;SDS011;14583;43.604;1.364;2023-02-11T16:39:03;10.95;;;8.98;;
26407;SDS011;14583;43.604;1.364;2023-02-11T16:41:29;13.60;;;8.95;;
26407;SDS011;14583;43.604;1.364;2023-02-11T16:43:58;13.43;;;9.25;;
26407;SDS011;14583;43.604;1.364;2023-02-11T16:46:23;11.98;;;9.60;;
26407;SDS011;14583;43.604;1.364;2023-02-11T16:48:51;12.65;;;8.98;;
26407;SDS011;14583;43.604;1.364;2023-02-11T16:51:18;15.95;;;9.30;;
26407;SDS011;14583;43.604;1.364;2023-02-11T16:53:44;13.02;;;8.98;;
26407;SDS011;14583;43.604;1.364;2023-02-11T16:56:13;14.07;;;9.95;;
26407;SDS011;14583;43.604;1.364;2023-02-11T16:58:40;14.90;;;9.93;;
26407;SDS011;14583;43.604;1.364;2023-02-11T17:01:06;16.38;;;9.45;;
26407;SDS011;14583;43.604;1.364;2023-02-11T17:03:33;13.98;;;10.27;;
26407;SDS011;14583;43.604;1.364;2023-02-11T17:06:04;15.60;;;10.68;;
26407;SDS011;14583;43.604;1.364;2023-02-11T17:08:33;21.80;;;10.70;;
26407;SDS011;14583;43.604;1.364;2023-02-11T17:11:00;15.18;;;10.82;;
26407;SDS011;14583;43.604;1.364;2023-02-11T17:13:26;23.00;;;10.77;;
26407;SDS011;14583;43.604;1.364;2023-02-11T17:15:52;19.48;;;11.88;;
26407;SDS011;14583;43.604;1.364;2023-02-11T17:18:18;16.95;;;11.32;;
26407;SDS011;14583;43.604;1.364;2023-02-11T17:20:43;23.05;;;11.23;;
26407;SDS011;14583;43.604;1.364;2023-02-11T17:23:09;18.08;;;11.43;;
26407;SDS011;14583;43.604;1.364;2023-02-11T17:25:35;17.40;;;11.25;;
26407;SDS011;14583;43.604;1.364;2023-02-11T17:28:02;17.63;;;11.70;;
26407;SDS011;14583;43.604;1.364;2023-02-11T17:30:31;16.00;;;11.07;;
26407;SDS011;14583;43.604;1.364;2023-02-11T17:32:57;17.95;;;11.30;;
26407;SDS011;14583;43.604;1.364;2023-02-11T17:35:23;18.92;;;11.73;;
26407;SDS011;14583;43.604;1.364;2023-02-11T17:37:49;17.48;;;11.45;;
26407;SDS011;14583;43.604;1.364;2023-02-11T17:40:15;25.65;;;11.35;;
26407;SDS011;14583;43.604;1.364;2023-02-11T17:42:41;17.98;;;11.85;;
26407;SDS011;14583;43.604;1.364;2023-02-11T17:45:07;18.98;;;11.80;;
26407;SDS011;14583;43.604;1.364;2023-02-11T17:47:33;18.38;;;12.38;;
26407;SDS011;14583;43.604;1.364;2023-02-11T17:49:58;20.30;;;11.90;;
26407;SDS011;14583;43.604;1.364;2023-02-11T17:52:25;24.10;;;12.18;;
26407;SDS011;14583;43.604;1.364;2023-02-11T17:54:52;20.63;;;12.25;;
26407;SDS011;14583;43.604;1.364;2023-02-11T17:57:18;18.67;;;12.13;;